createdAt,value
2018-07-27T00:02:15.494Z,4.67
2018-07-27T00:04:43.622Z,4.40
2018-07-27T00:07:11.758Z,4.47
2018-07-27T00:09:39.895Z,4.57
2018-07-27T00:12:08.030Z,4.20
2018-07-27T00:14:36.147Z,4.90
2018-07-27T00:17:04.273Z,4.27
2018-07-27T00:19:32.387Z,4.67
2018-07-27T00:22:00.518Z,4.47
2018-07-27T00:24:28.643Z,4.23
2018-07-27T00:26:56.766Z,4.20
2018-07-27T00:29:25.057Z,5.03
2018-07-27T00:31:53.201Z,4.27
2018-07-27T00:34:21.330Z,4.43
2018-07-27T00:36:49.598Z,3.90
2018-07-27T00:39:17.726Z,4.50
2018-07-27T00:41:45.886Z,4.80
2018-07-27T00:44:13.994Z,4.27
2018-07-27T00:46:42.114Z,4.27
2018-07-27T00:49:10.230Z,5.20
2018-07-27T00:51:38.363Z,4.80
2018-07-27T00:54:06.486Z,4.93
2018-07-27T00:56:34.604Z,4.90
2018-07-27T00:59:02.735Z,5.03
2018-07-27T01:01:30.854Z,5.10
2018-07-27T01:03:58.997Z,4.90
2018-07-27T01:06:27.110Z,5.03
2018-07-27T01:08:55.209Z,4.00
2018-07-27T01:11:23.315Z,5.10
2018-07-27T01:13:51.584Z,4.57
2018-07-27T01:16:19.677Z,4.70
2018-07-27T01:18:47.791Z,4.83
2018-07-27T01:21:15.898Z,4.10
2018-07-27T01:23:43.858Z,4.47
2018-07-27T01:26:11.733Z,4.33
2018-07-27T01:28:39.847Z,5.20
2018-07-27T01:31:08.016Z,4.33
2018-07-27T01:33:36.119Z,4.73
2018-07-27T01:36:04.222Z,4.60
2018-07-27T01:38:32.346Z,4.40
2018-07-27T01:41:00.446Z,4.57
2018-07-27T01:43:28.559Z,4.60
2018-07-27T01:45:56.650Z,4.70
2018-07-27T01:48:24.803Z,4.37
2018-07-27T01:50:52.900Z,4.50
2018-07-27T01:53:21.007Z,4.33
2018-07-27T01:55:49.105Z,4.60
2018-07-27T01:58:17.206Z,4.93
2018-07-27T02:00:45.302Z,4.40
2018-07-27T02:03:13.274Z,4.87
2018-07-27T02:05:41.386Z,4.83
2018-07-27T02:08:09.490Z,4.97
2018-07-27T02:10:37.589Z,4.50
2018-07-27T02:13:05.729Z,4.43
2018-07-27T02:15:33.823Z,4.83
2018-07-27T02:18:01.923Z,4.93
2018-07-27T02:20:30.023Z,4.60
2018-07-27T02:22:58.167Z,5.00
2018-07-27T02:25:26.301Z,4.50
2018-07-27T02:27:54.446Z,4.50
2018-07-27T02:30:22.589Z,4.90
2018-07-27T02:32:50.743Z,5.17
2018-07-27T02:35:18.885Z,4.93
2018-07-27T02:37:47.021Z,4.77
2018-07-27T02:40:15.171Z,5.00
2018-07-27T02:42:43.297Z,4.77
2018-07-27T02:45:11.446Z,5.30
2018-07-27T02:47:39.579Z,4.77
2018-07-27T02:50:07.718Z,4.87
2018-07-27T02:52:35.870Z,5.23
2018-07-27T02:55:04.031Z,5.37
2018-07-27T02:57:32.164Z,4.60
2018-07-27T03:00:00.311Z,4.60
2018-07-27T03:02:28.451Z,5.10
2018-07-27T03:04:56.594Z,5.30
2018-07-27T03:07:24.713Z,4.90
2018-07-27T03:09:52.948Z,5.43
2018-07-27T03:12:20.980Z,5.63
2018-07-27T03:14:49.106Z,5.30
2018-07-27T03:17:17.255Z,5.40
2018-07-27T03:19:45.366Z,5.30
2018-07-27T03:22:13.478Z,5.23
2018-07-27T03:24:41.635Z,5.30
2018-07-27T03:27:09.751Z,5.07
2018-07-27T03:29:37.874Z,5.73
2018-07-27T03:32:05.990Z,5.30
2018-07-27T03:34:34.116Z,5.27
2018-07-27T03:37:02.238Z,5.40
2018-07-27T03:39:30.366Z,5.30
2018-07-27T03:41:58.511Z,5.33
2018-07-27T03:44:26.599Z,5.40
2018-07-27T03:46:54.830Z,5.60
2018-07-27T03:49:22.945Z,5.47
2018-07-27T03:51:51.066Z,5.17
2018-07-27T03:54:19.198Z,5.43
2018-07-27T03:56:47.337Z,5.77
2018-07-27T03:59:15.491Z,5.60
2018-07-27T04:01:43.610Z,5.87
2018-07-27T04:04:11.734Z,6.07
2018-07-27T04:06:39.654Z,5.90
2018-07-27T04:09:08.594Z,5.70
2018-07-27T04:11:36.977Z,5.90
2018-07-27T04:14:05.130Z,5.80
2018-07-27T04:16:33.273Z,6.27
2018-07-27T04:19:01.538Z,6.37
2018-07-27T04:21:29.693Z,5.90
2018-07-27T04:23:57.858Z,5.87
2018-07-27T04:26:26.047Z,6.33
2018-07-27T04:28:54.151Z,6.10
2018-07-27T04:31:22.294Z,6.00
2018-07-27T04:33:50.447Z,7.10
2018-07-27T04:36:18.598Z,6.10
2018-07-27T04:38:46.734Z,6.40
2018-07-27T04:41:15.023Z,6.63
2018-07-27T04:43:43.161Z,6.83
2018-07-27T04:46:11.307Z,6.67
2018-07-27T04:48:39.609Z,6.73
2018-07-27T04:51:07.760Z,6.80
2018-07-27T04:53:35.902Z,7.60
2018-07-27T04:56:04.463Z,7.13
2018-07-27T04:58:32.619Z,7.00
2018-07-27T05:01:00.776Z,6.63
2018-07-27T05:03:28.916Z,7.20
2018-07-27T05:05:57.070Z,7.30
2018-07-27T05:08:25.185Z,7.47
2018-07-27T05:10:53.302Z,6.90
2018-07-27T05:13:21.427Z,7.47
2018-07-27T05:15:49.918Z,7.40
2018-07-27T05:18:18.536Z,7.97
2018-07-27T05:20:46.886Z,7.87
2018-07-27T05:23:15.295Z,8.60
2018-07-27T05:25:43.423Z,8.03
2018-07-27T05:28:11.541Z,7.60
2018-07-27T05:30:39.735Z,7.93
2018-07-27T05:33:07.863Z,8.27
2018-07-27T05:35:35.986Z,7.90
2018-07-27T05:38:04.122Z,7.87
2018-07-27T05:40:32.027Z,8.73
2018-07-27T05:43:00.154Z,8.50
2018-07-27T05:45:28.346Z,7.37
2018-07-27T05:47:56.487Z,7.97
2018-07-27T05:50:24.632Z,8.03
2018-07-27T05:52:52.901Z,8.13
2018-07-27T05:55:21.015Z,7.73
2018-07-27T05:57:49.142Z,8.10
2018-07-27T06:00:17.259Z,8.00
2018-07-27T06:02:45.429Z,8.30
2018-07-27T06:05:13.529Z,8.63
2018-07-27T06:07:41.660Z,8.60
2018-07-27T06:10:09.779Z,7.97
2018-07-27T06:12:37.918Z,9.00
2018-07-27T06:15:06.377Z,8.70
2018-07-27T06:17:34.530Z,8.30
2018-07-27T06:20:02.695Z,7.70
2018-07-27T06:22:30.820Z,9.20
2018-07-27T06:24:58.966Z,8.53
2018-07-27T06:27:27.093Z,8.90
2018-07-27T06:29:55.287Z,8.50
2018-07-27T06:32:23.398Z,8.73
2018-07-27T06:34:51.533Z,8.70
2018-07-27T06:37:19.669Z,8.80
2018-07-27T06:39:47.810Z,8.50
2018-07-27T06:42:16.134Z,8.30
2018-07-27T06:44:44.425Z,8.63
2018-07-27T06:47:12.690Z,8.57
2018-07-27T06:49:40.817Z,7.47
2018-07-27T06:52:09.049Z,8.77
2018-07-27T06:54:37.194Z,7.90
2018-07-27T06:57:05.331Z,8.30
2018-07-27T06:59:33.472Z,8.70
2018-07-27T07:02:01.610Z,8.37
2018-07-27T07:04:29.802Z,8.20
2018-07-27T07:06:57.970Z,8.30
2018-07-27T07:09:26.131Z,8.53
2018-07-27T07:11:54.269Z,7.83
2018-07-27T07:14:22.437Z,8.40
2018-07-27T07:16:50.589Z,8.00
2018-07-27T07:19:18.730Z,8.10
2018-07-27T07:21:46.904Z,7.97
2018-07-27T07:24:15.040Z,8.00
2018-07-27T07:26:43.187Z,8.00
2018-07-27T07:29:11.332Z,7.40
2018-07-27T07:31:39.510Z,8.17
2018-07-27T07:34:07.682Z,7.30
2018-07-27T07:36:35.851Z,7.87
2018-07-27T07:39:06.747Z,7.67
2018-07-27T07:41:34.907Z,7.60
2018-07-27T07:44:03.063Z,6.80
2018-07-27T07:46:31.230Z,7.57
2018-07-27T07:49:05.370Z,7.40
2018-07-27T07:51:34.662Z,7.63
2018-07-27T07:54:02.922Z,7.90
2018-07-27T07:56:31.505Z,7.40
2018-07-27T07:58:59.422Z,7.20
2018-07-27T08:01:27.589Z,7.30
2018-07-27T08:03:56.026Z,7.80
2018-07-27T08:06:24.210Z,7.67
2018-07-27T08:08:52.388Z,7.90
2018-07-27T08:11:20.548Z,8.03
2018-07-27T08:13:48.699Z,6.17
2018-07-27T08:16:16.886Z,7.90
2018-07-27T08:18:45.090Z,7.57
2018-07-27T08:21:13.263Z,7.80
2018-07-27T08:23:42.113Z,6.70
2018-07-27T08:27:00.714Z,6.97
2018-07-27T08:29:31.026Z,7.33
2018-07-27T08:31:59.630Z,7.90
2018-07-27T08:34:27.794Z,7.07
2018-07-27T08:36:55.950Z,7.53
2018-07-27T08:39:25.398Z,8.13
2018-07-27T08:41:53.573Z,7.30
2018-07-27T08:44:24.000Z,5.67
2018-07-27T08:46:52.389Z,6.80
2018-07-27T08:49:20.544Z,6.60
2018-07-27T08:51:48.714Z,7.60
2018-07-27T08:54:16.878Z,6.70
2018-07-27T08:56:45.059Z,6.13
2018-07-27T08:59:13.706Z,6.83
2018-07-27T09:01:41.860Z,7.90
2018-07-27T09:04:09.800Z,6.20
2018-07-27T09:06:37.942Z,6.70
2018-07-27T09:09:08.175Z,6.43
2018-07-27T09:11:36.435Z,7.37
2018-07-27T09:14:04.614Z,5.57
2018-07-27T09:16:32.757Z,5.50
2018-07-27T09:19:00.914Z,5.23
2018-07-27T09:21:29.086Z,6.20
2018-07-27T09:23:57.242Z,7.23
2018-07-27T09:26:26.314Z,6.10
2018-07-27T09:28:54.458Z,7.10
2018-07-27T09:31:23.382Z,5.83
2018-07-27T09:33:51.523Z,6.10
2018-07-27T09:36:19.671Z,6.67
2018-07-27T09:38:47.856Z,6.00
2018-07-27T09:41:16.266Z,5.50
2018-07-27T09:43:44.399Z,6.47
2018-07-27T09:46:14.028Z,5.53
2018-07-27T09:48:47.082Z,5.30
2018-07-27T09:51:15.214Z,5.07
2018-07-27T09:53:43.391Z,5.60
2018-07-27T09:56:11.466Z,4.63
2018-07-27T09:58:40.659Z,5.20
2018-07-27T10:01:13.072Z,4.80
2018-07-27T10:03:41.259Z,4.20
2018-07-27T10:06:09.507Z,5.03
2018-07-27T10:08:37.724Z,4.73
2018-07-27T10:11:05.871Z,4.73
2018-07-27T10:13:34.014Z,5.17
2018-07-27T10:16:02.150Z,4.70
2018-07-27T10:18:30.348Z,4.00
2018-07-27T10:20:58.466Z,4.50
2018-07-27T10:23:26.638Z,5.20
2018-07-27T10:25:54.776Z,4.23
2018-07-27T10:28:23.963Z,3.97
2018-07-27T10:30:52.122Z,3.70
2018-07-27T10:33:20.270Z,3.43
2018-07-27T10:35:50.986Z,4.50
2018-07-27T10:38:19.218Z,3.70
2018-07-27T10:40:47.130Z,4.40
2018-07-27T10:43:15.278Z,3.60
2018-07-27T10:45:43.418Z,4.00
2018-07-27T10:48:11.594Z,4.60
2018-07-27T10:50:39.738Z,3.80
2018-07-27T10:55:42.620Z,4.43
2018-07-27T10:58:10.778Z,4.37
2018-07-27T11:00:39.037Z,4.27
2018-07-27T11:03:07.196Z,3.67
2018-07-27T11:05:35.320Z,3.67
2018-07-27T11:08:03.458Z,3.67
2018-07-27T11:10:31.590Z,3.77
2018-07-27T11:12:59.722Z,3.30
2018-07-27T11:15:27.844Z,3.70
2018-07-27T11:17:56.014Z,3.27
2018-07-27T11:20:24.098Z,3.57
2018-07-27T11:22:52.228Z,3.43
2018-07-27T11:25:20.343Z,3.10
2018-07-27T11:27:49.346Z,3.70
2018-07-27T11:30:17.490Z,3.43
2018-07-27T11:32:45.618Z,3.67
2018-07-27T11:35:13.751Z,3.33
2018-07-27T11:37:41.934Z,3.60
2018-07-27T11:40:10.667Z,3.30
2018-07-27T11:42:38.800Z,3.17
2018-07-27T11:45:06.901Z,3.43
2018-07-27T11:47:35.058Z,3.90
2018-07-27T11:50:03.173Z,4.07
2018-07-27T11:52:31.302Z,4.10
2018-07-27T11:54:59.422Z,4.00
2018-07-27T11:57:27.545Z,4.17
2018-07-27T11:59:55.680Z,4.57
2018-07-27T12:02:23.790Z,3.83
2018-07-27T12:04:51.958Z,3.40
2018-07-27T12:07:20.106Z,3.10
2018-07-27T12:09:48.360Z,3.30
2018-07-27T12:12:16.493Z,3.47
2018-07-27T12:14:44.800Z,3.40
2018-07-27T12:17:12.814Z,3.40
2018-07-27T12:19:40.994Z,3.47
2018-07-27T12:22:09.133Z,4.50
2018-07-27T12:24:37.275Z,3.70
2018-07-27T12:27:05.490Z,3.37
2018-07-27T12:29:33.630Z,3.97
2018-07-27T12:32:01.806Z,3.90
2018-07-27T12:34:29.994Z,4.20
2018-07-27T12:36:58.143Z,4.43
2018-07-27T12:39:26.309Z,4.00
2018-07-27T12:41:54.481Z,3.47
2018-07-27T12:44:22.647Z,4.03
2018-07-27T12:46:50.798Z,3.30
2018-07-27T12:49:18.965Z,3.10
2018-07-27T12:51:47.185Z,3.37
2018-07-27T12:54:15.341Z,3.43
2018-07-27T12:56:43.515Z,3.43
2018-07-27T12:59:11.674Z,3.53
2018-07-27T13:01:39.813Z,3.40
2018-07-27T13:04:07.978Z,3.20
2018-07-27T13:06:36.313Z,2.87
2018-07-27T13:09:07.126Z,3.20
2018-07-27T13:11:35.268Z,3.30
2018-07-27T13:14:03.826Z,3.27
2018-07-27T13:16:31.734Z,3.10
2018-07-27T13:18:59.861Z,3.00
2018-07-27T13:21:27.995Z,2.93
2018-07-27T13:23:58.574Z,3.07
2018-07-27T13:26:26.815Z,3.47
2018-07-27T13:28:55.008Z,3.40
2018-07-27T13:31:34.593Z,3.00
2018-07-27T13:37:05.509Z,3.10
2018-07-27T13:39:34.334Z,3.07
2018-07-27T13:42:03.424Z,3.50
2018-07-27T13:44:32.657Z,3.60
2018-07-27T13:47:00.910Z,3.40
2018-07-27T13:49:29.282Z,4.17
2018-07-27T13:51:57.951Z,3.50
2018-07-27T13:54:26.410Z,3.87
2018-07-27T13:56:54.554Z,3.43
2018-07-27T13:59:22.694Z,3.63
2018-07-27T14:01:50.903Z,3.30
2018-07-27T14:04:19.090Z,3.30
2018-07-27T14:06:48.928Z,3.23
2018-07-27T14:09:17.068Z,3.70
2018-07-27T14:11:45.216Z,3.67
2018-07-27T14:14:13.506Z,3.20
2018-07-27T14:16:41.995Z,3.43
2018-07-27T14:19:10.466Z,3.03
2018-07-27T14:21:38.691Z,3.90
2018-07-27T14:24:06.806Z,3.40
2018-07-27T14:26:34.954Z,3.40
2018-07-27T14:29:03.134Z,2.90
2018-07-27T14:31:31.274Z,3.37
2018-07-27T14:33:59.394Z,3.20
2018-07-27T14:36:27.542Z,3.47
2018-07-27T14:38:55.679Z,3.00
2018-07-27T14:41:23.823Z,3.10
2018-07-27T14:43:52.250Z,2.73
2018-07-27T14:46:21.566Z,3.30
2018-07-27T14:48:49.708Z,3.27
2018-07-27T14:51:17.848Z,3.40
2018-07-27T14:53:45.979Z,3.10
2018-07-27T14:56:14.123Z,2.80
2018-07-27T14:58:42.374Z,2.53
2018-07-27T15:01:10.479Z,2.80
2018-07-27T15:03:38.650Z,2.40
2018-07-27T15:06:06.886Z,2.60
2018-07-27T15:08:35.046Z,3.07
2018-07-27T15:11:03.206Z,2.70
2018-07-27T15:13:31.355Z,2.93
2018-07-27T15:15:59.523Z,2.67
2018-07-27T15:18:27.662Z,3.10
2018-07-27T15:20:55.803Z,2.93
2018-07-27T15:23:23.974Z,3.00
2018-07-27T15:25:52.148Z,3.27
2018-07-27T15:28:20.309Z,2.40
2018-07-27T15:30:48.484Z,2.30
2018-07-27T15:33:16.651Z,2.93
2018-07-27T15:35:44.810Z,2.90
2018-07-27T15:38:13.389Z,2.90
2018-07-27T15:40:41.558Z,2.70
2018-07-27T15:43:09.726Z,3.30
2018-07-27T15:45:37.871Z,3.20
2018-07-27T15:48:06.071Z,2.70
2018-07-27T15:50:34.315Z,2.33
2018-07-27T15:53:02.464Z,2.63
2018-07-27T15:55:30.692Z,3.13
2018-07-27T15:57:58.831Z,2.90
2018-07-27T16:00:26.991Z,2.80
2018-07-27T16:02:55.192Z,2.87
2018-07-27T16:05:29.714Z,2.70
2018-07-27T16:07:57.862Z,2.57
2018-07-27T16:10:26.462Z,3.37
2018-07-27T16:12:54.727Z,3.53
2018-07-27T16:15:22.890Z,3.13
2018-07-27T16:17:51.082Z,3.10
2018-07-27T16:20:19.247Z,2.80
2018-07-27T16:22:47.389Z,2.97
2018-07-27T16:25:15.541Z,3.70
2018-07-27T16:27:43.736Z,3.60
2018-07-27T16:30:12.478Z,3.90
2018-07-27T16:32:40.638Z,2.97
2018-07-27T16:35:08.783Z,3.90
2018-07-27T16:37:36.938Z,3.33
2018-07-27T16:40:05.306Z,2.90
2018-07-27T16:42:33.452Z,3.90
2018-07-27T16:45:01.628Z,3.90
2018-07-27T16:47:29.798Z,3.70
2018-07-27T16:49:57.974Z,4.10
2018-07-27T16:52:26.126Z,3.93
2018-07-27T16:54:54.261Z,3.40
2018-07-27T16:57:22.418Z,3.00
2018-07-27T16:59:50.605Z,4.33
2018-07-27T17:02:18.755Z,3.80
2018-07-27T17:04:46.878Z,2.80
2018-07-27T17:07:15.007Z,3.63
2018-07-27T17:09:43.118Z,4.37
2018-07-27T17:12:11.281Z,3.27
2018-07-27T17:14:39.366Z,3.10
2018-07-27T17:17:07.624Z,3.80
2018-07-27T17:19:35.751Z,3.87
2018-07-27T17:22:03.942Z,3.97
2018-07-27T17:24:32.062Z,3.50
2018-07-27T17:27:00.186Z,4.03
2018-07-27T17:29:28.298Z,4.60
2018-07-27T17:31:56.443Z,3.60
2018-07-27T17:34:24.558Z,4.20
2018-07-27T17:36:52.702Z,3.80
2018-07-27T17:39:20.824Z,3.70
2018-07-27T17:41:48.963Z,4.40
2018-07-27T17:44:17.081Z,4.23
2018-07-27T17:46:45.217Z,3.80
2018-07-27T17:49:13.360Z,4.30
2018-07-27T17:51:41.511Z,3.90
2018-07-27T17:54:10.238Z,4.03
2018-07-27T17:56:38.430Z,4.80
2018-07-27T17:59:06.550Z,4.10
2018-07-27T18:01:34.726Z,4.27
2018-07-27T18:04:02.838Z,4.70
2018-07-27T18:06:31.014Z,4.40
2018-07-27T18:08:59.175Z,4.33
2018-07-27T18:11:28.132Z,4.07
2018-07-27T18:13:56.279Z,5.10
2018-07-27T18:16:24.415Z,4.53
2018-07-27T18:18:52.585Z,4.67
2018-07-27T18:21:20.726Z,4.80
2018-07-27T18:23:48.869Z,5.17
2018-07-27T18:26:17.018Z,5.07
2018-07-27T18:28:45.210Z,5.23
2018-07-27T18:31:13.349Z,4.33
2018-07-27T18:33:41.269Z,4.80
2018-07-27T18:36:09.414Z,6.10
2018-07-27T18:38:37.574Z,5.67
2018-07-27T18:41:05.736Z,5.80
2018-07-27T18:43:33.883Z,5.00
2018-07-27T18:46:02.026Z,5.50
2018-07-27T18:48:30.170Z,5.00
2018-07-27T18:50:58.298Z,5.60
2018-07-27T18:53:26.445Z,5.60
2018-07-27T18:55:54.601Z,5.60
2018-07-27T18:58:22.593Z,6.10
2018-07-27T19:00:50.742Z,5.90
2018-07-27T19:03:19.156Z,6.20
2018-07-27T19:05:47.435Z,6.20
2018-07-27T19:08:15.578Z,6.17
2018-07-27T19:10:43.789Z,5.70
2018-07-27T19:13:11.935Z,6.30
2018-07-27T19:15:40.104Z,6.27
2018-07-27T19:18:08.247Z,6.17
2018-07-27T19:20:36.410Z,6.30
2018-07-27T19:23:04.590Z,5.90
2018-07-27T19:25:32.733Z,6.30
2018-07-27T19:28:00.893Z,6.80
2018-07-27T19:30:29.035Z,6.67
2018-07-27T19:32:57.206Z,7.33
2018-07-27T19:35:25.365Z,5.90
2018-07-27T19:37:53.505Z,6.60
2018-07-27T19:40:21.696Z,6.57
2018-07-27T19:42:49.842Z,6.67
2018-07-27T19:45:17.975Z,6.77
2018-07-27T19:47:46.135Z,6.93
2018-07-27T19:50:14.287Z,6.60
2018-07-27T19:52:42.463Z,7.80
2018-07-27T19:55:10.604Z,7.03
2018-07-27T19:57:38.884Z,7.30
2018-07-27T20:00:07.637Z,6.80
2018-07-27T20:02:36.109Z,6.63
2018-07-27T20:05:04.294Z,6.37
2018-07-27T20:07:32.439Z,5.60
2018-07-27T20:10:00.582Z,6.70
2018-07-27T20:12:28.710Z,5.87
2018-07-27T20:14:56.863Z,5.70
2018-07-27T20:17:25.163Z,5.73
2018-07-27T20:19:53.346Z,6.77
2018-07-27T20:22:21.482Z,7.30
2018-07-27T20:24:49.643Z,6.77
2018-07-27T20:27:17.790Z,7.13
2018-07-27T20:29:45.933Z,8.07
2018-07-27T20:32:14.070Z,6.27
2018-07-27T20:34:42.657Z,6.83
2018-07-27T20:37:10.790Z,8.00
2018-07-27T20:39:38.929Z,7.23
2018-07-27T20:42:07.061Z,8.00
2018-07-27T20:44:35.217Z,6.90
2018-07-27T20:47:15.242Z,4.80
2018-07-27T20:49:43.421Z,7.63
2018-07-27T20:52:11.575Z,7.70
2018-07-27T20:54:39.723Z,8.10
2018-07-27T20:57:07.923Z,7.30
2018-07-27T20:59:36.030Z,7.90
2018-07-27T21:07:57.578Z,7.30
2018-07-27T21:10:25.717Z,8.67
2018-07-27T21:12:53.842Z,8.70
2018-07-27T21:15:22.502Z,8.27
2018-07-27T21:17:50.639Z,7.47
2018-07-27T21:20:18.766Z,7.50
2018-07-27T21:22:46.895Z,7.80
2018-07-27T21:25:15.022Z,7.93
2018-07-27T21:27:43.184Z,8.70
2018-07-27T21:30:11.992Z,8.10
2018-07-27T21:32:40.146Z,8.33
2018-07-27T21:35:08.294Z,8.20
2018-07-27T21:37:36.445Z,8.40
2018-07-27T21:40:04.580Z,8.00
2018-07-27T21:42:32.719Z,8.83
2018-07-27T21:45:01.981Z,8.50
2018-07-27T21:47:30.108Z,8.27
2018-07-27T21:49:58.257Z,7.70
2018-07-27T21:52:26.398Z,8.20
2018-07-27T21:54:54.904Z,7.93
2018-07-27T21:57:24.230Z,8.07
2018-07-27T21:59:52.374Z,8.40
2018-07-27T22:02:20.619Z,8.07
2018-07-27T22:04:48.757Z,8.80
2018-07-27T22:07:16.890Z,7.40
2018-07-27T22:09:45.019Z,8.60
2018-07-27T22:12:13.159Z,8.30
2018-07-27T22:14:41.283Z,8.93
2018-07-27T22:17:09.415Z,8.20
2018-07-27T22:19:37.550Z,8.10
2018-07-27T22:22:05.674Z,7.93
2018-07-27T22:24:33.798Z,8.97
2018-07-27T22:27:02.015Z,9.13
2018-07-27T22:29:30.245Z,7.90
2018-07-27T22:31:58.503Z,8.70
2018-07-27T22:34:26.626Z,7.80
2018-07-27T22:36:54.756Z,8.87
2018-07-27T22:39:22.878Z,7.60
2018-07-27T22:41:51.026Z,8.10
2018-07-27T22:44:19.155Z,8.30
2018-07-27T22:46:47.298Z,8.03
2018-07-27T22:49:15.433Z,8.50
2018-07-27T22:51:43.558Z,8.23
2018-07-27T22:54:11.682Z,8.20
2018-07-27T22:56:39.811Z,8.10
2018-07-27T22:59:07.958Z,8.60
2018-07-27T23:01:36.087Z,8.40
2018-07-27T23:04:04.253Z,8.20
2018-07-27T23:06:32.386Z,7.90
2018-07-27T23:09:00.534Z,7.60
2018-07-27T23:11:28.707Z,8.03
2018-07-27T23:13:56.854Z,7.97
2018-07-27T23:16:24.999Z,7.90
2018-07-27T23:18:53.137Z,7.53
2018-07-27T23:21:21.279Z,7.90
2018-07-27T23:23:49.414Z,8.20
2018-07-27T23:26:17.554Z,7.60
2018-07-27T23:28:45.706Z,7.60
2018-07-27T23:31:14.655Z,7.83
2018-07-27T23:33:42.790Z,8.43
2018-07-27T23:36:10.938Z,8.20
2018-07-27T23:38:39.141Z,7.73
2018-07-27T23:41:07.301Z,7.90
2018-07-27T23:43:35.450Z,7.63
2018-07-27T23:46:03.593Z,8.40
2018-07-27T23:48:31.738Z,7.60
2018-07-27T23:50:59.894Z,8.30
2018-07-27T23:53:28.031Z,7.53
2018-07-27T23:55:56.162Z,8.00
2018-07-27T23:58:24.310Z,8.47
